createdAt,value
2018-11-26T00:00:36.210Z,16.40
2018-11-26T00:03:08.666Z,15.65
2018-11-26T00:05:37.952Z,16.42
2018-11-26T00:08:07.584Z,15.80
2018-11-26T00:10:47.385Z,16.45
2018-11-26T00:13:15.814Z,15.20
2018-11-26T00:15:44.098Z,14.63
2018-11-26T00:18:12.477Z,15.30
2018-11-26T00:20:40.755Z,15.60
2018-11-26T00:23:09.566Z,14.40
2018-11-26T00:25:38.021Z,14.15
2018-11-26T00:28:06.885Z,14.13
2018-11-26T00:30:35.221Z,14.80
2018-11-26T00:33:03.592Z,13.85
2018-11-26T00:35:31.889Z,13.62
2018-11-26T00:38:00.215Z,15.15
2018-11-26T00:40:28.645Z,14.35
2018-11-26T00:42:57.119Z,14.75
2018-11-26T00:45:25.582Z,16.27
2018-11-26T00:47:54.027Z,14.98
2018-11-26T00:50:22.351Z,16.40
2018-11-26T00:52:50.772Z,16.87
2018-11-26T00:55:19.049Z,15.50
2018-11-26T00:57:47.470Z,15.83
2018-11-26T01:00:16.028Z,17.17
2018-11-26T01:02:44.450Z,15.70
2018-11-26T01:05:36.181Z,15.72
2018-11-26T01:08:04.435Z,16.02
2018-11-26T01:10:32.848Z,15.55
2018-11-26T01:13:01.427Z,16.62
2018-11-26T01:15:29.852Z,15.03
2018-11-26T01:17:58.148Z,14.68
2018-11-26T01:20:26.483Z,15.18
2018-11-26T01:22:55.055Z,15.40
2018-11-26T01:25:23.327Z,14.47
2018-11-26T01:27:51.763Z,14.10
2018-11-26T01:30:20.185Z,15.63
2018-11-26T01:32:48.881Z,14.23
2018-11-26T01:35:17.178Z,15.15
2018-11-26T01:37:45.603Z,15.88
2018-11-26T01:40:34.405Z,15.50
2018-11-26T01:43:02.789Z,14.20
2018-11-26T01:45:31.296Z,14.05
2018-11-26T01:47:59.603Z,14.30
2018-11-26T01:50:27.975Z,13.35
2018-11-26T01:52:56.285Z,14.03
2018-11-26T01:55:24.607Z,12.55
2018-11-26T01:57:52.903Z,12.60
2018-11-26T02:00:25.448Z,12.28
2018-11-26T02:02:54.393Z,12.20
2018-11-26T02:05:22.826Z,12.58
2018-11-26T02:07:51.411Z,12.58
2018-11-26T02:10:20.582Z,11.25
2018-11-26T02:12:48.934Z,11.25
2018-11-26T02:15:38.972Z,11.50
2018-11-26T02:18:08.212Z,10.72
2018-11-26T02:20:36.649Z,11.45
2018-11-26T02:23:05.098Z,11.33
2018-11-26T02:25:33.407Z,11.95
2018-11-26T02:28:01.732Z,10.90
2018-11-26T02:30:30.240Z,10.60
2018-11-26T02:32:58.587Z,10.95
2018-11-26T02:35:27.047Z,10.38
2018-11-26T02:37:55.439Z,9.75
2018-11-26T02:40:29.909Z,10.00
2018-11-26T02:42:58.291Z,9.73
2018-11-26T02:45:28.083Z,9.80
2018-11-26T02:47:56.619Z,9.85
2018-11-26T02:50:25.004Z,9.23
2018-11-26T02:52:53.384Z,9.18
2018-11-26T02:55:21.853Z,9.43
2018-11-26T02:57:50.440Z,8.95
2018-11-26T03:00:18.906Z,9.75
2018-11-26T03:02:47.210Z,9.20
2018-11-26T03:05:24.686Z,10.50
2018-11-26T03:07:53.246Z,10.45
2018-11-26T03:10:21.647Z,9.93
2018-11-26T03:12:49.959Z,10.50
2018-11-26T03:15:18.317Z,9.90
2018-11-26T03:17:46.723Z,10.55
2018-11-26T03:20:15.044Z,10.18
2018-11-26T03:22:43.577Z,10.48
2018-11-26T03:25:11.888Z,11.08
2018-11-26T03:27:40.186Z,10.15
2018-11-26T03:30:24.487Z,10.95
2018-11-26T03:32:53.035Z,10.20
2018-11-26T03:35:21.315Z,11.75
2018-11-26T03:37:49.655Z,11.38
2018-11-26T03:40:17.994Z,11.43
2018-11-26T03:42:46.272Z,11.18
2018-11-26T03:45:16.813Z,12.40
2018-11-26T03:47:45.225Z,11.88
2018-11-26T03:50:14.210Z,11.78
2018-11-26T03:52:43.446Z,11.53
2018-11-26T03:55:12.202Z,11.53
2018-11-26T03:57:40.612Z,11.85
2018-11-26T04:00:10.679Z,13.30
2018-11-26T04:02:39.110Z,13.00
2018-11-26T04:05:08.517Z,12.43
2018-11-26T04:07:36.921Z,11.78
2018-11-26T04:10:06.809Z,12.90
2018-11-26T04:12:35.109Z,12.80
2018-11-26T04:15:03.451Z,12.73
2018-11-26T04:17:31.909Z,12.88
2018-11-26T04:20:00.321Z,12.30
2018-11-26T04:22:28.796Z,11.33
2018-11-26T04:24:57.185Z,12.98
2018-11-26T04:27:25.806Z,12.85
2018-11-26T04:29:54.100Z,14.45
2018-11-26T04:32:22.421Z,12.75
2018-11-26T04:34:50.821Z,14.15
2018-11-26T04:37:19.438Z,12.13
2018-11-26T04:39:47.746Z,14.15
2018-11-26T04:42:16.000Z,13.20
2018-11-26T04:44:44.477Z,12.60
2018-11-26T04:47:12.787Z,14.07
2018-11-26T04:49:41.174Z,13.15
2018-11-26T04:52:09.452Z,13.32
2018-11-26T04:54:37.818Z,14.68
2018-11-26T04:57:06.334Z,13.80
2018-11-26T04:59:34.704Z,12.85
2018-11-26T05:02:03.081Z,13.25
2018-11-26T05:04:31.585Z,13.05
2018-11-26T05:07:00.094Z,13.50
2018-11-26T05:09:28.399Z,13.90
2018-11-26T05:11:56.711Z,13.53
2018-11-26T05:14:25.153Z,12.47
2018-11-26T05:16:53.542Z,13.25
2018-11-26T05:19:21.852Z,13.38
2018-11-26T05:21:50.183Z,14.13
2018-11-26T05:24:18.595Z,15.95
2018-11-26T05:26:46.983Z,16.60
2018-11-26T05:29:15.311Z,16.60
2018-11-26T05:31:43.751Z,16.97
2018-11-26T05:34:12.171Z,16.23
2018-11-26T05:36:40.499Z,15.70
2018-11-26T05:39:09.318Z,16.15
2018-11-26T05:41:37.730Z,16.77
2018-11-26T05:44:06.369Z,15.88
2018-11-26T05:46:34.665Z,15.75
2018-11-26T05:49:02.963Z,16.30
2018-11-26T05:51:31.391Z,18.05
2018-11-26T05:53:59.744Z,16.82
2018-11-26T05:56:28.216Z,18.20
2018-11-26T05:58:56.506Z,17.42
2018-11-26T06:01:24.985Z,18.92
2018-11-26T06:03:53.860Z,19.55
2018-11-26T06:06:22.211Z,16.70
2018-11-26T06:08:50.555Z,17.42
2018-11-26T06:11:18.876Z,17.15
2018-11-26T06:13:47.178Z,16.90
2018-11-26T06:16:17.327Z,17.02
2018-11-26T06:18:45.703Z,19.02
2018-11-26T06:21:14.050Z,16.80
2018-11-26T06:23:42.464Z,17.32
2018-11-26T06:26:10.758Z,15.43
2018-11-26T06:28:39.230Z,15.63
2018-11-26T06:31:07.583Z,16.70
2018-11-26T06:33:35.923Z,15.65
2018-11-26T06:36:05.182Z,17.35
2018-11-26T06:38:33.673Z,17.15
2018-11-26T06:41:02.032Z,16.25
2018-11-26T06:43:30.440Z,17.12
2018-11-26T06:45:58.709Z,17.32
2018-11-26T06:48:27.131Z,16.93
2018-11-26T06:50:55.541Z,16.82
2018-11-26T06:53:23.970Z,17.05
2018-11-26T06:55:52.260Z,17.00
2018-11-26T06:58:20.697Z,18.07
2018-11-26T07:00:49.507Z,17.80
2018-11-26T07:03:17.866Z,17.92
2018-11-26T07:05:46.152Z,18.52
2018-11-26T07:08:14.742Z,17.35
2018-11-26T07:10:43.090Z,18.45
2018-11-26T07:13:11.572Z,19.05
2018-11-26T07:15:40.223Z,18.45
2018-11-26T07:18:08.615Z,18.10
2018-11-26T07:20:36.993Z,18.50
2018-11-26T07:23:05.422Z,18.35
2018-11-26T07:25:33.771Z,18.10
2018-11-26T07:28:03.284Z,17.92
2018-11-26T07:30:31.760Z,17.73
2018-11-26T07:33:02.389Z,17.17
2018-11-26T07:35:31.595Z,17.73
2018-11-26T07:37:59.901Z,17.25
2018-11-26T07:40:28.211Z,17.95
2018-11-26T07:43:02.206Z,18.05
2018-11-26T07:45:30.807Z,16.55
2018-11-26T07:47:59.149Z,17.02
2018-11-26T07:50:27.408Z,17.42
2018-11-26T07:52:55.731Z,18.52
2018-11-26T07:55:24.114Z,17.55
2018-11-26T07:57:52.585Z,17.67
2018-11-26T08:00:21.852Z,18.70
2018-11-26T08:02:50.510Z,16.97
2018-11-26T08:05:19.798Z,16.12
2018-11-26T08:07:48.160Z,17.15
2018-11-26T08:10:18.864Z,17.73
2018-11-26T08:12:49.138Z,16.60
2018-11-26T08:15:20.496Z,19.32
2018-11-26T08:17:48.847Z,17.37
2018-11-26T08:20:17.341Z,16.75
2018-11-26T08:22:45.814Z,16.45
2018-11-26T08:25:16.701Z,18.27
2018-11-26T08:27:46.088Z,15.98
2018-11-26T08:30:18.361Z,45.35
2018-11-26T08:32:47.946Z,85.12
2018-11-26T08:35:17.170Z,87.08
2018-11-26T08:37:50.796Z,28.98
2018-11-26T08:40:23.218Z,26.80
2018-11-26T08:42:51.552Z,17.55
2018-11-26T08:45:25.198Z,16.50
2018-11-26T08:47:59.763Z,16.52
2018-11-26T08:50:28.031Z,16.65
2018-11-26T08:52:56.490Z,16.40
2018-11-26T08:55:24.868Z,17.07
2018-11-26T08:57:53.309Z,17.85
2018-11-26T09:00:21.611Z,16.93
2018-11-26T09:03:00.230Z,16.15
2018-11-26T09:05:34.076Z,16.07
2018-11-26T09:08:02.472Z,17.70
2018-11-26T09:10:30.747Z,17.52
2018-11-26T09:12:59.119Z,16.50
2018-11-26T09:15:27.519Z,17.75
2018-11-26T09:17:55.925Z,16.15
2018-11-26T09:20:24.222Z,17.15
2018-11-26T09:22:52.603Z,17.75
2018-11-26T09:25:20.906Z,17.00
2018-11-26T09:27:49.226Z,15.15
2018-11-26T09:30:17.590Z,17.85
2018-11-26T09:32:45.933Z,16.17
2018-11-26T09:35:15.709Z,17.90
2018-11-26T09:37:44.087Z,17.40
2018-11-26T09:40:16.605Z,17.73
2018-11-26T09:42:45.178Z,17.05
2018-11-26T09:45:16.689Z,17.70
2018-11-26T09:47:45.421Z,17.57
2018-11-26T09:50:16.055Z,18.70
2018-11-26T09:52:44.379Z,20.62
2018-11-26T09:55:14.576Z,49.70
2018-11-26T09:57:42.853Z,111.97
2018-11-26T10:00:13.565Z,191.15
2018-11-26T10:02:43.273Z,93.35
2018-11-26T10:05:13.135Z,42.83
2018-11-26T10:07:41.516Z,31.90
2018-11-26T10:10:11.247Z,25.57
2018-11-26T10:12:40.189Z,29.42
2018-11-26T10:15:17.980Z,30.25
2018-11-26T10:17:46.305Z,32.60
2018-11-26T10:20:14.683Z,24.77
2018-11-26T10:22:43.945Z,23.02
2018-11-26T10:25:14.240Z,21.48
2018-11-26T10:27:42.582Z,22.52
2018-11-26T10:30:13.067Z,24.60
2018-11-26T10:32:41.780Z,18.87
2018-11-26T10:35:13.224Z,19.20
2018-11-26T10:37:41.895Z,20.75
2018-11-26T10:40:11.439Z,20.35
2018-11-26T10:42:39.849Z,20.23
2018-11-26T10:45:10.095Z,21.17
2018-11-26T10:47:38.426Z,24.45
2018-11-26T10:50:09.648Z,19.92
2018-11-26T10:52:37.987Z,21.30
2018-11-26T10:55:08.992Z,18.42
2018-11-26T10:57:37.291Z,18.15
2018-11-26T11:00:07.311Z,18.95
2018-11-26T11:02:40.940Z,17.42
2018-11-26T11:05:09.339Z,17.05
2018-11-26T11:07:37.726Z,17.35
2018-11-26T11:10:09.886Z,15.63
2018-11-26T11:12:38.327Z,18.07
2018-11-26T11:15:08.718Z,17.00
2018-11-26T11:17:37.255Z,17.35
2018-11-26T11:20:11.476Z,14.90
2018-11-26T11:22:39.798Z,15.65
2018-11-26T11:25:08.962Z,17.55
2018-11-26T11:27:37.261Z,17.90
2018-11-26T11:30:18.524Z,18.25
2018-11-26T11:32:46.944Z,19.15
2018-11-26T11:35:15.837Z,17.32
2018-11-26T11:37:45.338Z,17.62
2018-11-26T11:40:21.852Z,18.02
2018-11-26T11:42:50.282Z,19.40
2018-11-26T11:45:19.091Z,20.08
2018-11-26T11:47:47.565Z,19.15
2018-11-26T11:50:17.761Z,19.75
2018-11-26T11:52:46.527Z,22.75
2018-11-26T11:55:18.931Z,22.40
2018-11-26T11:57:47.542Z,21.12
2018-11-26T12:00:25.296Z,20.68
2018-11-26T12:02:53.693Z,21.77
2018-11-26T12:05:22.098Z,23.10
2018-11-26T12:07:50.462Z,22.82
2018-11-26T12:10:18.987Z,22.10
2018-11-26T12:12:47.314Z,23.70
2018-11-26T12:15:16.745Z,22.73
2018-11-26T12:17:45.929Z,23.70
2018-11-26T12:20:14.905Z,22.58
2018-11-26T12:22:43.594Z,24.72
2018-11-26T12:25:13.980Z,24.05
2018-11-26T12:27:42.500Z,23.50
2018-11-26T12:30:15.498Z,22.40
2018-11-26T12:32:44.019Z,22.90
2018-11-26T12:35:12.795Z,22.75
2018-11-26T12:37:41.193Z,24.70
2018-11-26T12:40:10.959Z,22.60
2018-11-26T12:42:39.462Z,23.30
2018-11-26T12:45:11.710Z,23.02
2018-11-26T12:47:39.989Z,24.12
2018-11-26T12:50:08.360Z,24.32
2018-11-26T12:52:37.130Z,22.40
2018-11-26T12:55:06.163Z,24.10
2018-11-26T12:57:34.791Z,20.50
2018-11-26T13:00:06.227Z,21.77
2018-11-26T13:02:34.551Z,23.83
2018-11-26T13:05:02.931Z,24.15
2018-11-26T13:07:31.378Z,24.35
2018-11-26T13:09:59.865Z,24.15
2018-11-26T13:12:28.294Z,23.02
2018-11-26T13:14:56.988Z,23.10
2018-11-26T13:17:25.284Z,28.57
2018-11-26T13:19:54.656Z,38.92
2018-11-26T13:22:23.001Z,32.13
2018-11-26T13:24:51.347Z,32.45
2018-11-26T13:27:19.836Z,57.10
2018-11-26T13:29:48.155Z,39.42
2018-11-26T13:32:17.095Z,48.42
2018-11-26T13:34:45.545Z,35.15
2018-11-26T13:37:14.082Z,25.97
2018-11-26T13:39:42.621Z,36.45
2018-11-26T13:42:11.062Z,49.48
2018-11-26T13:44:39.763Z,33.02
2018-11-26T13:47:08.366Z,22.80
2018-11-26T13:49:36.832Z,22.95
2018-11-26T13:52:05.232Z,33.58
2018-11-26T13:54:33.487Z,28.20
2018-11-26T13:57:01.830Z,20.75
2018-11-26T13:59:30.159Z,21.12
2018-11-26T14:01:58.600Z,20.05
2018-11-26T14:04:26.942Z,19.92
2018-11-26T14:06:55.272Z,21.42
2018-11-26T14:09:23.607Z,19.45
2018-11-26T14:11:52.072Z,20.57
2018-11-26T14:14:20.331Z,21.87
2018-11-26T14:16:48.630Z,20.25
2018-11-26T14:19:16.970Z,19.15
2018-11-26T14:21:46.328Z,20.10
2018-11-26T14:24:15.034Z,21.40
2018-11-26T14:26:43.126Z,21.75
2018-11-26T14:29:11.525Z,22.75
2018-11-26T14:31:40.099Z,23.05
2018-11-26T14:34:08.544Z,27.32
2018-11-26T14:36:36.951Z,21.23
2018-11-26T14:39:07.343Z,21.50
2018-11-26T14:41:35.852Z,19.95
2018-11-26T14:44:04.491Z,24.32
2018-11-26T14:46:32.633Z,29.63
2018-11-26T14:49:00.991Z,31.90
2018-11-26T14:51:29.543Z,23.50
2018-11-26T14:53:57.846Z,20.37
2018-11-26T14:56:26.457Z,20.12
2018-11-26T14:58:54.833Z,17.75
2018-11-26T15:01:23.216Z,17.87
2018-11-26T15:03:51.529Z,19.60
2018-11-26T15:06:20.019Z,17.60
2018-11-26T15:08:48.413Z,17.62
2018-11-26T15:11:16.923Z,19.25
2018-11-26T15:13:45.243Z,19.45
2018-11-26T15:16:13.583Z,17.25
2018-11-26T15:18:42.190Z,22.45
2018-11-26T15:21:10.499Z,22.77
2018-11-26T15:23:38.869Z,18.90
2018-11-26T15:26:08.662Z,18.98
2018-11-26T15:28:37.004Z,20.48
2018-11-26T15:31:05.358Z,18.52
2018-11-26T15:33:33.910Z,19.40
2018-11-26T15:36:02.243Z,19.07
2018-11-26T15:38:30.630Z,19.48
2018-11-26T15:40:58.906Z,18.95
2018-11-26T15:43:27.396Z,20.60
2018-11-26T15:45:55.772Z,19.95
2018-11-26T15:48:24.214Z,21.85
2018-11-26T15:50:52.700Z,19.92
2018-11-26T15:53:21.000Z,19.07
2018-11-26T15:55:49.439Z,21.42
2018-11-26T15:58:23.492Z,23.40
2018-11-26T16:00:46.544Z,23.25
2018-11-26T16:03:15.018Z,20.30
2018-11-26T16:05:43.498Z,20.72
2018-11-26T16:08:14.170Z,20.30
2018-11-26T16:10:42.613Z,22.75
2018-11-26T16:13:12.989Z,25.65
2018-11-26T16:15:43.776Z,30.72
2018-11-26T16:18:14.090Z,28.00
2018-11-26T16:20:42.611Z,26.62
2018-11-26T16:23:11.536Z,30.85
2018-11-26T16:25:41.590Z,32.50
2018-11-26T16:28:11.281Z,27.87
2018-11-26T16:30:39.862Z,31.40
2018-11-26T16:33:09.159Z,28.57
2018-11-26T16:35:37.553Z,29.77
2018-11-26T16:38:06.576Z,29.30
2018-11-26T16:40:34.970Z,25.08
2018-11-26T16:43:03.312Z,28.02
2018-11-26T16:45:32.173Z,25.08
2018-11-26T16:48:00.618Z,25.48
2018-11-26T16:50:30.518Z,22.90
2018-11-26T16:52:58.968Z,23.73
2018-11-26T16:55:27.320Z,22.98
2018-11-26T16:57:55.724Z,24.25
2018-11-26T17:00:26.117Z,22.93
2018-11-26T17:02:56.821Z,31.05
2018-11-26T17:05:26.654Z,23.40
2018-11-26T17:07:54.975Z,20.23
2018-11-26T17:10:23.294Z,35.35
2018-11-26T17:12:51.835Z,38.25
2018-11-26T17:15:20.149Z,27.98
2018-11-26T17:17:48.626Z,22.70
2018-11-26T17:20:17.590Z,18.07
2018-11-26T17:22:45.964Z,19.02
2018-11-26T17:25:16.457Z,17.05
2018-11-26T17:27:45.431Z,19.57
2018-11-26T17:30:19.020Z,18.17
2018-11-26T17:32:48.697Z,19.07
2018-11-26T17:35:18.106Z,18.62
2018-11-26T17:37:46.404Z,15.70
2018-11-26T17:40:16.806Z,15.55
2018-11-26T17:42:45.145Z,16.10
2018-11-26T17:45:14.351Z,15.30
2018-11-26T17:47:45.202Z,15.53
2018-11-26T17:50:15.421Z,17.27
2018-11-26T17:52:44.047Z,19.25
2018-11-26T17:55:12.578Z,23.77
2018-11-26T17:57:40.995Z,16.60
2018-11-26T18:00:18.198Z,15.20
2018-11-26T18:02:46.759Z,15.63
2018-11-26T18:05:17.369Z,15.10
2018-11-26T18:07:48.211Z,17.42
2018-11-26T18:10:16.554Z,15.58
2018-11-26T18:12:44.913Z,16.30
2018-11-26T18:15:14.095Z,15.30
2018-11-26T18:17:43.302Z,15.83
2018-11-26T18:20:19.549Z,15.03
2018-11-26T18:22:49.385Z,15.48
2018-11-26T18:25:19.042Z,16.00
2018-11-26T18:27:54.432Z,15.90
2018-11-26T18:30:25.836Z,16.80
2018-11-26T18:32:54.457Z,17.17
2018-11-26T18:35:23.843Z,17.23
2018-11-26T18:37:52.226Z,16.80
2018-11-26T18:40:20.696Z,17.80
2018-11-26T18:42:49.301Z,17.12
2018-11-26T18:45:18.518Z,17.82
2018-11-26T18:47:47.630Z,17.60
2018-11-26T18:50:19.279Z,17.48
2018-11-26T18:52:48.657Z,18.17
2018-11-26T18:55:17.328Z,19.50
2018-11-26T18:57:45.839Z,22.40
2018-11-26T19:00:21.554Z,24.77
2018-11-26T19:02:50.531Z,27.67
2018-11-26T19:05:19.784Z,21.45
2018-11-26T19:07:48.137Z,19.75
2018-11-26T19:10:20.567Z,18.40
2018-11-26T19:12:52.666Z,20.70
2018-11-26T19:15:23.325Z,19.90
2018-11-26T19:17:52.902Z,19.80
2018-11-26T19:20:21.299Z,17.95
2018-11-26T19:22:49.680Z,20.25
2018-11-26T19:25:19.035Z,22.65
2018-11-26T19:27:48.785Z,22.67
2018-11-26T19:30:17.210Z,22.07
2018-11-26T19:32:46.406Z,20.10
2018-11-26T19:35:15.788Z,20.37
2018-11-26T19:37:44.524Z,19.02
2018-11-26T19:40:15.186Z,21.42
2018-11-26T19:42:45.304Z,21.35
2018-11-26T19:45:17.972Z,20.55
2018-11-26T19:47:46.526Z,21.55
2018-11-26T19:50:16.331Z,21.30
2018-11-26T19:52:45.326Z,21.33
2018-11-26T19:55:18.083Z,21.60
2018-11-26T19:57:46.867Z,20.35
2018-11-26T20:00:18.287Z,20.65
2018-11-26T20:02:48.601Z,20.92
2018-11-26T20:05:26.289Z,22.05
2018-11-26T20:07:54.692Z,19.95
2018-11-26T20:10:22.990Z,21.30
2018-11-26T20:12:51.485Z,21.62
2018-11-26T20:15:19.941Z,20.48
2018-11-26T20:17:48.351Z,22.70
2018-11-26T20:20:16.884Z,21.60
2018-11-26T20:22:45.206Z,21.62
2018-11-26T20:25:14.459Z,23.02
2018-11-26T20:27:43.606Z,26.37
2018-11-26T20:30:13.269Z,21.87
2018-11-26T20:32:42.988Z,22.32
2018-11-26T20:35:12.268Z,21.90
2018-11-26T20:37:40.663Z,21.68
2018-11-26T20:40:11.723Z,20.80
2018-11-26T20:42:41.901Z,21.40
2018-11-26T20:45:12.110Z,22.02
2018-11-26T20:47:40.458Z,22.35
2018-11-26T20:50:14.692Z,21.70
2018-11-26T20:52:43.104Z,22.02
2018-11-26T20:55:13.926Z,22.77
2018-11-26T20:57:42.314Z,23.27
2018-11-26T21:00:14.119Z,21.33
2018-11-26T21:02:42.703Z,20.30
2018-11-26T21:05:11.175Z,19.70
2018-11-26T21:07:39.603Z,22.02
2018-11-26T21:10:11.134Z,20.45
2018-11-26T21:12:39.489Z,21.35
2018-11-26T21:15:12.290Z,20.05
2018-11-26T21:17:40.736Z,22.32
2018-11-26T21:20:42.941Z,21.02
2018-11-26T21:23:15.284Z,20.17
2018-11-26T21:25:43.668Z,22.77
2018-11-26T21:28:12.674Z,20.27
2018-11-26T21:30:41.140Z,23.07
2018-11-26T21:33:09.620Z,20.70
2018-11-26T21:35:37.962Z,21.95
2018-11-26T21:38:07.798Z,21.52
2018-11-26T21:40:36.077Z,21.40
2018-11-26T21:43:05.078Z,23.50
2018-11-26T21:45:37.782Z,22.45
2018-11-26T21:48:06.323Z,21.07
2018-11-26T21:50:34.991Z,21.75
2018-11-26T21:53:03.480Z,24.12
2018-11-26T21:55:31.951Z,24.57
2018-11-26T21:58:00.420Z,23.67
2018-11-26T22:00:30.062Z,23.90
2018-11-26T22:03:02.878Z,23.50
2018-11-26T22:05:31.568Z,24.07
2018-11-26T22:08:00.149Z,22.42
2018-11-26T22:10:28.643Z,22.35
2018-11-26T22:13:01.238Z,25.05
2018-11-26T22:15:43.898Z,24.95
2018-11-26T22:18:17.927Z,25.10
2018-11-26T22:21:17.974Z,25.95
2018-11-26T22:23:56.509Z,25.23
